Time;durP1;ratioP1;P1;durP2;ratioP2;P2;SDS_P1;SDS_P2;PMS_P1;PMS_P2;Temp;Humidity;BMP_temperature;BMP_pressure;BME280_temperature;BME280_humidity;BME280_pressure;Samples;Min_cycle;Max_cycle;Signal;HPM_P1;HPM_P2
2021/06/03 00:00:22;;;;;;;6.72;4.50;;;19.00;1.00;;;;;;5107528;28;20079;-90
2021/06/03 00:02:48;;;;;;;5.15;4.63;;;19.00;1.00;;;;;;5091992;28;20563;-91
2021/06/03 00:05:17;;;;;;;6.15;5.55;;;19.00;1.00;;;;;;5092476;28;20036;-91
2021/06/03 00:07:43;;;;;;;5.72;5.13;;;18.90;1.00;;;;;;5092546;28;20031;-91
2021/06/03 00:10:09;;;;;;;9.98;5.63;;;18.90;1.00;;;;;;5074182;28;20114;-91
2021/06/03 00:12:36;;;;;;;6.32;5.07;;;18.90;1.00;;;;;;5074440;28;20054;-91
2021/06/03 00:15:03;;;;;;;6.22;4.95;;;18.90;1.00;;;;;;5074715;28;20028;-91
2021/06/03 00:17:28;;;;;;;7.38;5.45;;;19.00;1.00;;;;;;5093814;28;20392;-89
2021/06/03 00:19:54;;;;;;;7.05;5.10;;;18.80;1.00;;;;;;5074273;28;20120;-91
2021/06/03 00:22:20;;;;;;;6.15;4.53;;;18.80;1.00;;;;;;5092007;28;20024;-91
2021/06/03 00:24:46;;;;;;;6.60;4.63;;;18.80;1.00;;;;;;5074664;28;20044;-91
2021/06/03 00:27:12;;;;;;;6.20;4.40;;;18.80;1.00;;;;;;5092172;28;20085;-91
2021/06/03 00:29:37;;;;;;;4.95;4.07;;;18.80;1.00;;;;;;5071873;28;20459;-91
2021/06/03 00:32:05;;;;;;;4.47;4.07;;;18.80;1.00;;;;;;5089479;28;20039;-91
2021/06/03 00:34:31;;;;;;;4.35;3.95;;;18.80;1.00;;;;;;5070510;28;20060;-91
2021/06/03 00:36:57;;;;;;;4.78;4.03;;;18.80;1.00;;;;;;5072134;28;20493;-91
2021/06/03 00:39:23;;;;;;;4.63;4.15;;;18.80;1.00;;;;;;5069950;28;20059;-92
2021/06/03 00:41:48;;;;;;;5.03;4.05;;;18.80;1.00;;;;;;5055087;28;20028;-91
2021/06/03 00:44:14;;;;;;;5.78;4.25;;;18.80;1.00;;;;;;5070328;28;20103;-91
2021/06/03 00:46:39;;;;;;;8.23;4.30;;;18.80;1.00;;;;;;5072453;28;20052;-91
2021/06/03 00:49:05;;;;;;;7.40;4.25;;;18.70;1.00;;;;;;5055302;28;20536;-91
2021/06/03 00:51:31;;;;;;;6.20;4.30;;;18.70;1.00;;;;;;5069918;28;20082;-91
2021/06/03 00:53:56;;;;;;;4.45;4.05;;;18.80;1.00;;;;;;5069773;28;20028;-92
2021/06/03 00:56:22;;;;;;;7.07;4.40;;;18.60;1.00;;;;;;5070173;28;20021;-91
2021/06/03 00:58:48;;;;;;;4.47;4.07;;;18.70;1.00;;;;;;5069863;28;20040;-91
2021/06/03 01:01:14;;;;;;;5.90;4.35;;;18.60;1.00;;;;;;5054100;28;20025;-91
2021/06/03 01:03:40;;;;;;;4.80;4.28;;;18.60;1.00;;;;;;5070499;28;20063;-91
2021/06/03 01:06:09;;;;;;;5.70;4.30;;;18.60;1.00;;;;;;5052129;28;20033;-91
2021/06/03 01:08:36;;;;;;;6.47;4.10;;;18.60;1.00;;;;;;5052446;28;20507;-91
2021/06/03 01:11:38;;;;;;;5.28;3.95;;;18.70;1.00;;;;;;5074319;28;20056;-91
2021/06/03 01:14:14;;;;;;;5.93;4.20;;;18.70;1.00;;;;;;5043928;28;20039;-91
2021/06/03 01:16:41;;;;;;;7.25;4.35;;;18.70;1.00;;;;;;5059410;28;20032;-91
2021/06/03 01:19:11;;;;;;;4.80;4.40;;;18.70;1.00;;;;;;5077177;28;20544;-91
2021/06/03 01:21:48;;;;;;;4.45;4.07;;;18.70;1.00;;;;;;5057651;28;20024;-91
2021/06/03 01:24:14;;;;;;;8.88;4.38;;;18.80;1.00;;;;;;5056069;28;20048;-91
2021/06/03 01:26:40;;;;;;;7.25;4.43;;;18.80;1.00;;;;;;5075376;28;20032;-90
2021/06/03 01:29:06;;;;;;;6.78;4.20;;;18.80;1.00;;;;;;5054489;28;20106;-91
2021/06/03 01:31:32;;;;;;;4.75;4.03;;;18.70;1.00;;;;;;5074257;28;20048;-91
2021/06/03 01:33:58;;;;;;;5.18;4.20;;;18.80;1.00;;;;;;5075129;28;20106;-91
2021/06/03 01:36:24;;;;;;;5.82;4.35;;;18.80;1.00;;;;;;5073717;28;20021;-91
2021/06/03 01:38:50;;;;;;;6.82;4.70;;;18.70;1.00;;;;;;5073484;28;20078;-91
2021/06/03 01:41:17;;;;;;;9.40;4.50;;;18.70;1.00;;;;;;5056637;28;20059;-92
2021/06/03 01:43:45;;;;;;;4.60;4.10;;;18.70;1.00;;;;;;5074953;28;20041;-91
2021/06/03 01:46:11;;;;;;;5.55;4.90;;;18.70;1.00;;;;;;5076691;28;20012;-91
2021/06/03 01:48:37;;;;;;;5.45;4.30;;;18.80;1.00;;;;;;5058514;28;20032;-91
2021/06/03 01:51:06;;;;;;;7.85;4.35;;;18.70;1.00;;;;;;5056835;28;20028;-91
2021/06/03 01:53:33;;;;;;;5.43;4.13;;;18.80;1.00;;;;;;5066000;28;20060;-91
2021/06/03 01:56:05;;;;;;;6.57;4.53;;;18.80;1.00;;;;;;5056571;28;20025;-89
2021/06/03 01:58:31;;;;;;;5.10;4.60;;;18.70;1.00;;;;;;5074649;28;20032;-90
2021/06/03 02:00:58;;;;;;;7.10;4.57;;;18.70;1.00;;;;;;5075615;28;20021;-91
2021/06/03 02:03:25;;;;;;;5.43;4.60;;;18.70;1.00;;;;;;5055987;28;20094;-91
2021/06/03 02:05:51;;;;;;;5.35;4.32;;;18.70;1.00;;;;;;5056631;28;20031;-91
2021/06/03 02:08:17;;;;;;;6.57;4.40;;;18.60;1.00;;;;;;5073057;28;20025;-91
2021/06/03 02:10:44;;;;;;;5.85;4.47;;;18.60;1.00;;;;;;5054376;28;20033;-93
2021/06/03 02:13:11;;;;;;;7.10;4.55;;;18.50;1.00;;;;;;5056637;28;20535;-91
2021/06/03 02:15:46;;;;;;;5.88;4.38;;;18.50;1.00;;;;;;5073733;28;20028;-91
2021/06/03 02:18:13;;;;;;;7.55;4.75;;;18.40;1.00;;;;;;5058657;28;20043;-91
2021/06/03 02:20:42;;;;;;;7.05;4.60;;;18.50;1.00;;;;;;5052667;28;20024;-91
2021/06/03 02:23:10;;;;;;;6.53;4.53;;;18.40;1.00;;;;;;5067652;28;20045;-90
2021/06/03 02:25:36;;;;;;;6.90;4.60;;;18.40;1.00;;;;;;5070778;28;20033;-91
2021/06/03 02:28:05;;;;;;;7.55;4.38;;;18.30;1.00;;;;;;5056388;28;20032;-91
2021/06/03 02:30:32;;;;;;;4.45;4.05;;;18.30;1.00;;;;;;5055056;28;20060;-91
2021/06/03 02:32:59;;;;;;;7.47;4.30;;;18.30;1.00;;;;;;5072327;28;20049;-92
2021/06/03 02:35:26;;;;;;;5.45;4.10;;;18.30;1.00;;;;;;5072569;28;20378;-91
2021/06/03 02:37:52;;;;;;;5.43;4.22;;;18.30;1.00;;;;;;5055840;28;20078;-91
2021/06/03 02:40:22;;;;;;;4.88;4.45;;;18.30;1.00;;;;;;5072945;28;20423;-91
2021/06/03 02:42:49;;;;;;;5.25;4.25;;;18.30;1.00;;;;;;5074010;28;20496;-92
2021/06/03 02:45:20;;;;;;;5.10;4.50;;;18.30;1.00;;;;;;5072980;28;20040;-91
2021/06/03 02:47:46;;;;;;;5.03;4.32;;;18.40;1.00;;;;;;5056682;28;20029;-92
2021/06/03 02:50:13;;;;;;;6.03;4.10;;;18.40;1.00;;;;;;5055147;28;20035;-92
2021/06/03 02:52:39;;;;;;;4.18;3.78;;;19.00;1.00;;;;;;5072515;28;20037;-91
2021/06/03 02:55:08;;;;;;;4.22;3.80;;;18.40;1.00;;;;;;5051723;28;20090;-91
2021/06/03 02:57:34;;;;;;;4.30;3.90;;;18.50;1.00;;;;;;5086527;28;20039;-91
2021/06/03 02:59:59;;;;;;;4.32;3.95;;;18.40;1.00;;;;;;5072240;28;20032;-91
2021/06/03 03:02:25;;;;;;;4.18;3.75;;;18.40;1.00;;;;;;5069942;28;20051;-91
2021/06/03 03:04:51;;;;;;;5.68;3.83;;;18.50;1.00;;;;;;5072379;28;20036;-91
2021/06/03 03:07:16;;;;;;;5.85;3.72;;;18.40;1.00;;;;;;5073035;28;20035;-92
2021/06/03 03:09:42;;;;;;;4.57;3.75;;;18.30;1.00;;;;;;5088207;28;20028;-90
2021/06/03 03:12:09;;;;;;;4.05;3.55;;;18.30;1.00;;;;;;5055720;28;20446;-91
2021/06/03 03:14:37;;;;;;;6.50;4.30;;;18.40;1.00;;;;;;5054353;28;20438;-92
2021/06/03 03:17:03;;;;;;;4.93;4.10;;;18.40;1.00;;;;;;5072520;28;20036;-91
2021/06/03 03:19:29;;;;;;;4.55;3.80;;;18.40;1.00;;;;;;5073646;28;20036;-92
2021/06/03 03:21:55;;;;;;;4.40;4.00;;;18.30;1.00;;;;;;5055925;28;20027;-91
2021/06/03 03:24:21;;;;;;;4.40;3.78;;;18.40;1.00;;;;;;5054666;28;20036;-91
2021/06/03 03:26:46;;;;;;;4.13;3.72;;;18.40;1.00;;;;;;5053864;28;20070;-91
2021/06/03 03:29:12;;;;;;;5.50;3.75;;;18.60;1.00;;;;;;5052759;28;20036;-91
2021/06/03 03:31:38;;;;;;;5.95;4.18;;;18.30;1.00;;;;;;5053303;28;20028;-91
2021/06/03 03:34:03;;;;;;;4.32;3.92;;;18.30;1.00;;;;;;5073417;28;20083;-91
2021/06/03 03:36:30;;;;;;;6.38;4.15;;;18.30;1.00;;;;;;5066866;28;20404;-91
2021/06/03 03:38:56;;;;;;;5.95;3.85;;;18.30;1.00;;;;;;5049251;28;20071;-91
2021/06/03 03:41:23;;;;;;;5.43;3.67;;;18.40;1.00;;;;;;5051856;28;20024;-91
2021/06/03 03:43:50;;;;;;;4.13;3.63;;;18.70;1.00;;;;;;5055019;28;20511;-91
2021/06/03 03:46:16;;;;;;;4.68;3.65;;;18.40;1.00;;;;;;5054908;28;20051;-91
2021/06/03 03:48:42;;;;;;;4.40;3.42;;;18.40;1.00;;;;;;5074997;28;20032;-91
2021/06/03 03:51:10;;;;;;;5.20;3.50;;;18.40;1.00;;;;;;5071767;28;20115;-91
2021/06/03 03:53:35;;;;;;;4.40;4.00;;;18.40;1.00;;;;;;5070552;28;20485;-91
2021/06/03 03:56:01;;;;;;;4.78;3.47;;;18.40;1.00;;;;;;5071454;28;20024;-90
2021/06/03 03:58:27;;;;;;;6.07;3.50;;;18.40;1.00;;;;;;5053235;28;20108;-91
2021/06/03 04:00:53;;;;;;;4.47;3.90;;;18.40;1.00;;;;;;5055109;28;20051;-91
2021/06/03 04:03:18;;;;;;;4.93;3.60;;;18.40;1.00;;;;;;5071136;28;20194;-91
2021/06/03 04:05:44;;;;;;;8.32;3.55;;;18.30;1.00;;;;;;5053287;28;20020;-92
2021/06/03 04:08:09;;;;;;;3.90;3.20;;;18.30;1.00;;;;;;5054430;28;20020;-91
2021/06/03 04:10:35;;;;;;;3.80;3.15;;;18.20;1.00;;;;;;5054583;28;20029;-92
2021/06/03 04:13:01;;;;;;;4.93;3.38;;;18.20;1.00;;;;;;5073011;28;20401;-91
2021/06/03 04:15:27;;;;;;;3.97;3.20;;;18.40;1.00;;;;;;5073368;28;20082;-91
2021/06/03 04:17:52;;;;;;;5.07;3.17;;;18.40;1.00;;;;;;5074006;28;20039;-91
2021/06/03 04:20:21;;;;;;;5.57;3.20;;;18.50;1.00;;;;;;5085263;28;20480;-91
2021/06/03 04:22:48;;;;;;;3.47;3.10;;;18.50;1.00;;;;;;5087575;28;20024;-91
2021/06/03 04:25:14;;;;;;;4.60;2.83;;;18.50;1.00;;;;;;5055419;28;20507;-92
2021/06/03 04:27:40;;;;;;;3.38;2.97;;;18.50;1.00;;;;;;5073289;28;20025;-91
2021/06/03 04:30:08;;;;;;;4.93;3.63;;;18.50;1.00;;;;;;5073087;28;20070;-91
2021/06/03 04:32:34;;;;;;;4.25;3.67;;;18.50;1.00;;;;;;5055096;28;20070;-91
2021/06/03 04:35:00;;;;;;;6.47;3.63;;;18.50;1.00;;;;;;5073061;28;20032;-91
2021/06/03 04:37:26;;;;;;;4.53;3.13;;;18.60;1.00;;;;;;5072970;28;20044;-91
2021/06/03 04:39:52;;;;;;;5.95;3.20;;;18.60;1.00;;;;;;5073423;28;20032;-91
2021/06/03 04:42:18;;;;;;;4.38;3.65;;;18.60;1.00;;;;;;5072798;28;20116;-91
2021/06/03 04:44:44;;;;;;;4.00;3.53;;;18.60;1.00;;;;;;5072730;28;20178;-92
2021/06/03 04:47:10;;;;;;;5.45;4.05;;;18.60;1.00;;;;;;5072947;28;20661;-92
2021/06/03 04:49:35;;;;;;;4.15;3.67;;;18.60;1.00;;;;;;5054219;28;20025;-91
2021/06/03 04:52:25;;;;;;;4.10;3.72;;;18.70;1.00;;;;;;5053979;28;20056;-91
2021/06/03 04:54:47;;;;;;;4.82;3.80;;;18.70;1.00;;;;;;5052917;28;20437;-91
2021/06/03 04:57:12;;;;;;;6.63;3.90;;;18.70;1.00;;;;;;5043340;28;20032;-91
2021/06/03 04:59:38;;;;;;;5.70;4.15;;;18.70;1.00;;;;;;5054756;28;20027;-91
2021/06/03 05:02:04;;;;;;;5.00;3.95;;;18.60;1.00;;;;;;5065523;28;20025;-91
2021/06/03 05:04:29;;;;;;;5.13;3.80;;;18.60;1.00;;;;;;5034553;28;20044;-91
2021/06/03 05:06:55;;;;;;;3.95;3.60;;;18.60;1.00;;;;;;5052786;28;20033;-91
2021/06/03 05:09:21;;;;;;;6.95;3.60;;;18.70;1.00;;;;;;5053185;28;20433;-91
2021/06/03 05:11:46;;;;;;;3.75;3.38;;;18.70;1.00;;;;;;5052838;28;20025;-91
2021/06/03 05:14:12;;;;;;;4.25;3.40;;;18.80;1.00;;;;;;5035261;28;20539;-91
2021/06/03 05:16:38;;;;;;;3.90;3.55;;;18.80;1.00;;;;;;5036708;28;20021;-92
2021/06/03 05:19:03;;;;;;;4.97;3.72;;;18.90;1.00;;;;;;5074398;28;20571;-91
2021/06/03 05:21:29;;;;;;;4.82;3.78;;;18.90;1.00;;;;;;5066567;28;20497;-91
2021/06/03 05:23:54;;;;;;;3.50;3.20;;;19.00;1.00;;;;;;5055003;28;20522;-93
2021/06/03 05:26:20;;;;;;;4.38;3.22;;;19.10;1.00;;;;;;5054867;28;20054;-90
2021/06/03 05:28:46;;;;;;;4.78;3.15;;;19.20;1.00;;;;;;5068265;28;20025;-91
2021/06/03 05:31:11;;;;;;;5.72;3.30;;;19.30;1.00;;;;;;5053286;28;20032;-90
2021/06/03 05:33:37;;;;;;;3.75;3.10;;;19.40;1.00;;;;;;5069839;28;20137;-89
2021/06/03 05:36:03;;;;;;;7.10;3.28;;;19.40;1.00;;;;;;5051118;28;20481;-93
2021/06/03 05:38:28;;;;;;;5.28;3.20;;;19.50;99.90;;;;;;5069258;28;20016;-92
2021/06/03 05:40:54;;;;;;;4.90;2.83;;;19.60;99.90;;;;;;5069279;28;20036;-92
2021/06/03 05:43:19;;;;;;;3.75;3.05;;;19.80;99.90;;;;;;5071025;28;20435;-94
2021/06/03 05:45:45;;;;;;;5.30;2.83;;;19.80;99.90;;;;;;5069357;28;20480;-94
2021/06/03 05:48:11;;;;;;;6.45;3.20;;;20.00;99.90;;;;;;5052334;28;20082;-93
2021/06/03 05:50:36;;;;;;;5.55;2.90;;;20.00;99.90;;;;;;5060745;28;20408;-93
2021/06/03 05:53:02;;;;;;;7.63;3.00;;;20.10;99.90;;;;;;5070980;28;20044;-87
2021/06/03 05:55:28;;;;;;;4.10;3.05;;;20.30;99.90;;;;;;5070038;28;20107;-87
2021/06/03 05:57:54;;;;;;;4.57;3.10;;;20.40;99.90;;;;;;5074582;28;20024;-88
2021/06/03 06:00:26;;;;;;;5.05;2.80;;;20.40;99.90;;;;;;5071020;28;20033;-88
2021/06/03 06:02:56;;;;;;;3.30;3.00;;;20.50;99.90;;;;;;5071885;28;20087;-88
2021/06/03 06:08:14;;;;;;;4.53;2.75;;;20.60;99.90;;;;;;5073046;28;20077;-89
2021/06/03 06:10:41;;;;;;;5.55;2.67;;;20.50;99.90;;;;;;5072942;28;20047;-92
2021/06/03 06:13:07;;;;;;;4.13;3.10;;;20.70;99.90;;;;;;5055303;28;20040;-92
2021/06/03 06:15:34;;;;;;;5.85;2.83;;;20.50;99.90;;;;;;5038365;28;20033;-93
2021/06/03 06:18:00;;;;;;;5.50;2.90;;;20.40;99.90;;;;;;5052735;28;20558;-93
2021/06/03 06:20:26;;;;;;;4.15;2.80;;;20.40;99.90;;;;;;5072700;28;20029;-92
2021/06/03 06:22:53;;;;;;;3.15;2.85;;;20.30;99.90;;;;;;5058408;28;20040;-90
2021/06/03 06:25:20;;;;;;;3.72;3.10;;;20.20;99.90;;;;;;5055406;28;20036;-92
2021/06/03 06:27:46;;;;;;;4.82;2.53;;;20.10;99.90;;;;;;5056275;28;20066;-94
2021/06/03 06:30:13;;;;;;;5.40;3.03;;;20.10;99.90;;;;;;5058376;28;20059;-96
2021/06/03 06:32:39;;;;;;;3.28;2.88;;;20.10;99.90;;;;;;5054775;28;20447;-95
2021/06/03 06:35:06;;;;;;;5.53;2.83;;;20.00;99.90;;;;;;5072398;28;20028;-92
2021/06/03 06:37:33;;;;;;;3.35;2.60;;;20.10;99.90;;;;;;5055091;28;20090;-92
2021/06/03 06:39:58;;;;;;;4.32;3.20;;;20.20;99.90;;;;;;5065788;28;20028;-92
2021/06/03 06:42:25;;;;;;;3.88;2.75;;;20.20;99.90;;;;;;5073656;28;20052;-92
2021/06/03 06:44:51;;;;;;;4.10;2.72;;;20.30;99.90;;;;;;5050362;28;20504;-93
2021/06/03 06:47:17;;;;;;;2.85;2.47;;;20.50;99.90;;;;;;5071967;28;20048;-92
2021/06/03 06:49:43;;;;;;;4.97;2.72;;;20.90;99.90;;;;;;5072574;28;20477;-91
2021/06/03 06:52:08;;;;;;;3.55;2.60;;;21.30;99.90;;;;;;5056384;28;20021;-92
2021/06/03 06:54:34;;;;;;;4.05;2.45;;;21.30;99.90;;;;;;5071068;28;20032;-91
2021/06/03 06:57:00;;;;;;;4.07;2.97;;;21.40;99.90;;;;;;5055519;28;20032;-92
2021/06/03 06:59:25;;;;;;;3.90;2.53;;;21.40;99.90;;;;;;5055441;28;20025;-91
2021/06/03 07:01:51;;;;;;;3.30;2.80;;;21.60;99.90;;;;;;5071456;28;20038;-92
2021/06/03 07:04:17;;;;;;;4.18;2.55;;;21.40;99.90;;;;;;5055863;28;20561;-92
2021/06/03 07:06:43;;;;;;;4.25;2.90;;;21.10;99.90;;;;;;5071637;28;20120;-92
2021/06/03 07:09:08;;;;;;;4.30;2.70;;;21.00;99.90;;;;;;5054155;28;20036;-92
2021/06/03 07:11:35;;;;;;;3.85;2.63;;;21.00;99.90;;;;;;5072373;28;20047;-91
2021/06/03 07:14:01;;;;;;;3.63;2.85;;;20.90;99.90;;;;;;5057111;28;20167;-91
2021/06/03 07:16:27;;;;;;;5.20;3.03;;;20.90;99.90;;;;;;5059828;28;20029;-92
2021/06/03 07:18:52;;;;;;;5.18;3.20;;;20.90;99.90;;;;;;5057437;28;20073;-92
2021/06/03 07:21:18;;;;;;;6.03;3.15;;;21.20;99.90;;;;;;5054160;28;20107;-92
2021/06/03 07:23:44;;;;;;;4.88;3.17;;;21.40;99.90;;;;;;5054912;28;20032;-92
2021/06/03 07:26:10;;;;;;;3.45;3.00;;;21.50;99.90;;;;;;5054626;28;20531;-92
2021/06/03 07:28:35;;;;;;;8.18;3.03;;;21.70;99.90;;;;;;5055215;28;20032;-91
2021/06/03 07:31:01;;;;;;;3.35;2.92;;;21.60;99.90;;;;;;5073489;28;20079;-92
2021/06/03 07:33:26;;;;;;;4.35;3.00;;;21.60;99.90;;;;;;5078230;28;20492;-92
2021/06/03 07:35:52;;;;;;;4.57;3.17;;;21.70;99.90;;;;;;5091518;28;20028;-92
2021/06/03 07:38:19;;;;;;;4.20;2.85;;;21.60;99.90;;;;;;5087601;28;20329;-92
2021/06/03 07:40:45;;;;;;;5.25;2.95;;;21.60;99.90;;;;;;5088370;28;20048;-92
2021/06/03 07:43:13;;;;;;;6.88;3.13;;;21.70;99.90;;;;;;5075431;28;20020;-92
2021/06/03 07:45:39;;;;;;;5.60;3.30;;;21.70;99.90;;;;;;5074679;28;20454;-91
2021/06/03 07:48:05;;;;;;;4.05;2.90;;;21.70;99.90;;;;;;5070915;28;20020;-92
2021/06/03 07:50:33;;;;;;;4.75;2.65;;;21.60;99.90;;;;;;5074923;28;20031;-91
2021/06/03 07:53:00;;;;;;;3.45;2.90;;;21.60;99.90;;;;;;5079617;28;20026;-91
2021/06/03 07:55:27;;;;;;;3.85;3.10;;;21.60;99.90;;;;;;5091440;28;20452;-91
2021/06/03 07:57:55;;;;;;;4.38;3.40;;;21.80;99.90;;;;;;5074420;28;20104;-92
2021/06/03 08:00:22;;;;;;;6.95;3.20;;;21.90;99.90;;;;;;5071210;28;20097;-92
2021/06/03 08:02:49;;;;;;;5.15;3.20;;;21.90;99.90;;;;;;5108243;28;20029;-91
2021/06/03 08:05:17;;;;;;;4.68;3.13;;;22.30;99.90;;;;;;5073946;28;20036;-92
2021/06/03 08:07:43;;;;;;;4.15;3.45;;;22.70;99.90;;;;;;5087630;28;20013;-92
2021/06/03 08:10:12;;;;;;;4.93;3.53;;;22.90;99.90;;;;;;5075230;28;20031;-92
2021/06/03 08:12:37;;;;;;;6.80;3.55;;;23.00;99.90;;;;;;5074270;28;20084;-92
2021/06/03 08:15:06;;;;;;;4.40;3.10;;;23.20;99.90;;;;;;5086727;28;20093;-91
2021/06/03 08:17:31;;;;;;;4.43;3.13;;;23.40;99.90;;;;;;5069254;28;20032;-92
2021/06/03 08:19:57;;;;;;;7.15;3.35;;;23.60;99.90;;;;;;5074489;28;20073;-92
2021/06/03 08:22:23;;;;;;;3.75;3.03;;;23.70;99.90;;;;;;5089764;28;20028;-92
2021/06/03 08:24:49;;;;;;;5.68;3.00;;;23.40;99.90;;;;;;5072813;28;20126;-92
2021/06/03 08:27:14;;;;;;;3.22;2.92;;;23.40;99.90;;;;;;5070924;28;20111;-91
2021/06/03 08:29:40;;;;;;;5.68;3.05;;;23.20;99.90;;;;;;5092428;28;20036;-91
2021/06/03 08:32:06;;;;;;;5.95;3.30;;;22.90;99.90;;;;;;5069292;28;20465;-92
2021/06/03 08:34:32;;;;;;;4.60;3.40;;;23.00;99.90;;;;;;5072373;28;20038;-92
2021/06/03 08:36:57;;;;;;;4.65;3.20;;;23.00;99.90;;;;;;5092797;28;20020;-91
2021/06/03 08:39:23;;;;;;;4.72;3.40;;;22.70;99.90;;;;;;5088396;28;20434;-91
2021/06/03 08:41:49;;;;;;;4.78;3.33;;;22.70;99.90;;;;;;5070702;28;20473;-91
2021/06/03 08:44:14;;;;;;;3.00;2.70;;;22.90;99.90;;;;;;5070818;28;20070;-91
2021/06/03 08:46:40;;;;;;;3.60;2.70;;;22.70;99.90;;;;;;5087484;28;20532;-90
2021/06/03 08:49:10;;;;;;;4.80;2.90;;;22.30;99.90;;;;;;5088586;28;20171;-91
2021/06/03 08:51:36;;;;;;;4.80;2.65;;;22.60;99.90;;;;;;5073962;28;20031;-91
2021/06/03 08:54:04;;;;;;;4.80;2.92;;;22.70;99.90;;;;;;5070283;28;20032;-91
2021/06/03 08:56:29;;;;;;;3.15;2.67;;;22.80;99.90;;;;;;5073683;28;20051;-92
2021/06/03 08:59:00;;;;;;;4.10;2.85;;;22.90;99.90;;;;;;5087083;28;20133;-91
2021/06/03 09:01:29;;;;;;;4.15;2.70;;;22.90;99.90;;;;;;5089711;28;20024;-91
2021/06/03 09:03:54;;;;;;;5.53;2.75;;;23.00;99.90;;;;;;5077723;28;20039;-91
2021/06/03 09:06:20;;;;;;;4.15;3.03;;;23.10;99.90;;;;;;5088854;28;20365;-91
2021/06/03 09:08:58;;;;;;;3.38;2.58;;;23.00;99.90;;;;;;5088330;28;20055;-91
2021/06/03 09:11:26;;;;;;;3.58;2.80;;;23.20;99.90;;;;;;5091115;28;20520;-91
2021/06/03 09:13:55;;;;;;;3.58;3.13;;;23.50;99.90;;;;;;5073476;28;20554;-91
2021/06/03 09:16:21;;;;;;;3.20;2.90;;;23.50;99.90;;;;;;5091518;28;20047;-91
2021/06/03 09:18:53;;;;;;;3.25;2.95;;;23.40;99.90;;;;;;5091146;28;20063;-91
2021/06/03 09:21:21;;;;;;;3.53;3.10;;;23.40;99.90;;;;;;5090889;28;20439;-91
2021/06/03 09:23:59;;;;;;;4.75;3.03;;;23.50;99.90;;;;;;5091386;28;20170;-91
2021/06/03 09:26:27;;;;;;;3.50;3.20;;;23.80;99.90;;;;;;5090943;28;20036;-91
2021/06/03 09:28:55;;;;;;;4.07;3.10;;;23.90;99.90;;;;;;5092019;28;20082;-91
2021/06/03 09:31:28;;;;;;;3.50;3.05;;;24.00;99.90;;;;;;5096023;28;20024;-91
2021/06/03 09:34:08;;;;;;;4.70;3.10;;;24.10;99.90;;;;;;5078657;28;20052;-92
2021/06/03 09:36:42;;;;;;;5.10;3.17;;;24.00;99.90;;;;;;5057666;28;20040;-91
2021/06/03 09:39:20;;;;;;;6.07;3.28;;;23.90;99.90;;;;;;5060943;28;20033;-90
2021/06/03 09:41:50;;;;;;;4.10;3.40;;;23.70;99.90;;;;;;5075070;28;20040;-91
2021/06/03 09:44:18;;;;;;;3.70;3.30;;;24.10;99.90;;;;;;5073413;28;20516;-91
2021/06/03 09:46:48;;;;;;;4.50;4.10;;;24.10;99.90;;;;;;5072814;28;20028;-91
2021/06/03 09:49:19;;;;;;;3.90;3.25;;;24.20;99.90;;;;;;5057346;28;20016;-91
2021/06/03 09:51:47;;;;;;;5.88;3.60;;;24.00;99.90;;;;;;5074689;28;20016;-91
2021/06/03 09:54:15;;;;;;;4.05;3.60;;;24.10;99.90;;;;;;5073322;28;20033;-91
2021/06/03 09:56:46;;;;;;;3.70;2.97;;;24.20;99.90;;;;;;5073938;28;20099;-90
2021/06/03 09:59:16;;;;;;;3.88;3.35;;;24.20;99.90;;;;;;5072584;28;20036;-90
2021/06/03 10:01:43;;;;;;;4.43;3.25;;;24.10;99.90;;;;;;5057656;28;20029;-91
2021/06/03 10:04:10;;;;;;;4.18;3.10;;;24.20;99.90;;;;;;5075122;28;20036;-90
2021/06/03 10:06:59;;;;;;;5.28;2.85;;;24.20;99.90;;;;;;5072715;28;20036;-90
2021/06/03 10:09:45;;;;;;;3.75;2.60;;;24.20;99.90;;;;;;5074617;28;20027;-91
2021/06/03 10:12:13;;;;;;;8.77;4.03;;;24.10;99.90;;;;;;5075929;28;20488;-91
2021/06/03 10:14:39;;;;;;;6.32;3.05;;;24.50;99.90;;;;;;5071705;28;20025;-91
2021/06/03 10:17:20;;;;;;;3.15;2.70;;;24.70;99.90;;;;;;5052917;28;20492;-91
2021/06/03 10:19:48;;;;;;;3.15;2.85;;;24.80;99.90;;;;;;5055640;28;20017;-90
2021/06/03 10:22:20;;;;;;;3.22;2.92;;;24.60;99.90;;;;;;5055944;28;20111;-90
2021/06/03 10:25:01;;;;;;;2.70;2.50;;;24.60;99.90;;;;;;5073306;28;20056;-91
2021/06/03 10:27:33;;;;;;;3.13;2.90;;;24.70;99.90;;;;;;5072832;28;20054;-90
2021/06/03 10:30:06;;;;;;;6.82;3.45;;;24.60;99.90;;;;;;5072211;28;20037;-90
2021/06/03 10:32:32;;;;;;;3.33;3.03;;;24.80;99.90;;;;;;5052367;28;20063;-90
2021/06/03 10:34:58;;;;;;;5.15;3.03;;;24.80;99.90;;;;;;5072515;28;20032;-90
2021/06/03 10:37:26;;;;;;;5.00;3.20;;;24.90;99.90;;;;;;5072495;28;20060;-90
2021/06/03 10:39:55;;;;;;;3.67;2.95;;;25.10;99.90;;;;;;5073959;28;20032;-90
2021/06/03 10:42:21;;;;;;;3.33;2.50;;;24.80;99.90;;;;;;5070488;28;20028;-90
2021/06/03 10:44:47;;;;;;;3.90;2.85;;;24.80;99.90;;;;;;5072661;28;20109;-90
2021/06/03 10:47:14;;;;;;;2.70;2.40;;;24.90;99.90;;;;;;5072579;28;20051;-91
2021/06/03 10:49:40;;;;;;;3.53;2.80;;;24.90;99.90;;;;;;5070873;28;20263;-90
2021/06/03 10:52:08;;;;;;;4.93;2.63;;;25.10;99.90;;;;;;5073928;28;20028;-90
2021/06/03 10:54:47;;;;;;;6.00;2.75;;;25.30;99.90;;;;;;5047483;28;20032;-90
2021/06/03 10:57:14;;;;;;;2.90;2.50;;;25.50;99.90;;;;;;5054874;28;20029;-90
2021/06/03 10:59:41;;;;;;;3.25;2.90;;;25.30;99.90;;;;;;5053680;28;20083;-90
2021/06/03 11:02:10;;;;;;;3.03;2.72;;;25.40;99.90;;;;;;5052652;28;20033;-90
2021/06/03 11:04:38;;;;;;;3.65;2.60;;;25.60;99.90;;;;;;5055558;28;20037;-90
2021/06/03 11:07:05;;;;;;;5.68;2.53;;;25.30;99.90;;;;;;5072513;28;20020;-90
2021/06/03 11:09:34;;;;;;;5.15;2.40;;;25.10;99.90;;;;;;5067308;28;20071;-91
2021/06/03 11:12:10;;;;;;;5.82;2.95;;;25.50;99.90;;;;;;5071118;28;20489;-90
2021/06/03 11:14:59;;;;;;;2.95;2.65;;;25.70;99.90;;;;;;5071090;28;20091;-90
2021/06/03 11:17:49;;;;;;;3.75;2.83;;;25.70;99.90;;;;;;5072566;28;20397;-90
2021/06/03 11:20:15;;;;;;;3.20;2.47;;;25.70;99.90;;;;;;5070752;28;20032;-89
2021/06/03 11:22:41;;;;;;;5.68;2.90;;;25.70;99.90;;;;;;5069907;28;20390;-90
2021/06/03 11:25:07;;;;;;;4.25;3.00;;;25.80;99.90;;;;;;5051084;28;20118;-90
2021/06/03 11:27:40;;;;;;;5.80;3.00;;;26.00;99.90;;;;;;5052077;28;20048;-89
2021/06/03 11:30:11;;;;;;;3.22;2.92;;;26.60;99.90;;;;;;5052287;28;20066;-89
2021/06/03 11:32:42;;;;;;;3.55;2.97;;;26.50;99.90;;;;;;5067743;28;20515;-89
2021/06/03 11:35:12;;;;;;;4.95;2.88;;;26.70;99.90;;;;;;5071116;28;20024;-89
2021/06/03 11:37:41;;;;;;;2.95;2.72;;;26.80;99.90;;;;;;5054590;28;20021;-89
2021/06/03 11:40:07;;;;;;;4.35;2.83;;;26.90;99.90;;;;;;5068355;28;20117;-90
2021/06/03 11:42:40;;;;;;;3.13;2.63;;;26.90;99.90;;;;;;5070861;28;20037;-89
2021/06/03 11:45:18;;;;;;;3.13;2.80;;;26.70;99.90;;;;;;5053687;28;20463;-89
2021/06/03 11:47:44;;;;;;;5.97;3.15;;;26.80;99.90;;;;;;5070273;28;20469;-90
2021/06/03 11:50:16;;;;;;;3.15;2.80;;;27.20;99.90;;;;;;5072262;28;20111;-89
2021/06/03 11:52:54;;;;;;;3.83;2.70;;;27.00;99.90;;;;;;5054444;28;20032;-90
2021/06/03 11:55:29;;;;;;;2.97;2.78;;;26.80;99.90;;;;;;5071523;28;20392;-89
2021/06/03 11:58:13;;;;;;;3.42;2.60;;;26.70;99.90;;;;;;5052871;28;20029;-90
2021/06/03 12:00:45;;;;;;;3.58;2.90;;;26.90;99.90;;;;;;5069363;28;20025;-89
2021/06/03 12:03:31;;;;;;;3.00;2.80;;;27.00;99.90;;;;;;5070422;28;20503;-89
2021/06/03 12:06:14;;;;;;;3.50;2.80;;;27.40;99.90;;;;;;5064453;28;20032;-90
2021/06/03 12:08:57;;;;;;;2.70;2.35;;;28.80;99.90;;;;;;5050463;28;20028;-89
2021/06/03 12:11:36;;;;;;;3.58;3.03;;;30.60;99.90;;;;;;5053440;28;20024;-90
2021/06/03 12:14:10;;;;;;;4.53;2.75;;;30.80;99.90;;;;;;5069517;28;20508;-90
2021/06/03 12:16:41;;;;;;;2.92;2.70;;;32.40;99.90;;;;;;5069399;28;20028;-89
2021/06/03 12:19:12;;;;;;;3.20;2.60;;;32.60;99.90;;;;;;5067589;28;20576;-89
2021/06/03 12:21:40;;;;;;;4.15;2.70;;;33.20;99.90;;;;;;5069261;28;20028;-90
2021/06/03 12:24:06;;;;;;;5.22;2.72;;;33.80;99.90;;;;;;5069302;28;20040;-90
2021/06/03 12:26:36;;;;;;;3.70;2.78;;;33.30;99.90;;;;;;5049884;28;20028;-89
2021/06/03 12:29:02;;;;;;;3.10;2.40;;;32.70;99.90;;;;;;5066690;28;20025;-90
2021/06/03 12:31:28;;;;;;;2.72;2.53;;;34.50;99.90;;;;;;5069986;28;20039;-89
2021/06/03 12:33:55;;;;;;;4.10;2.47;;;33.40;99.90;;;;;;5071474;28;20044;-90
2021/06/03 12:36:25;;;;;;;4.18;2.53;;;32.80;99.90;;;;;;5052036;28;20032;-89
2021/06/03 12:38:56;;;;;;;4.43;2.75;;;33.20;99.90;;;;;;5069550;28;20444;-90
2021/06/03 12:41:34;;;;;;;6.03;2.78;;;33.80;99.90;;;;;;5069577;28;20063;-90
2021/06/03 12:44:10;;;;;;;3.00;2.40;;;32.60;99.90;;;;;;5050039;28;20405;-90
2021/06/03 12:46:38;;;;;;;2.90;2.30;;;32.80;99.90;;;;;;5068548;28;20055;-90
2021/06/03 12:49:28;;;;;;;3.35;2.78;;;31.80;99.90;;;;;;5052829;28;20035;-90
2021/06/03 12:52:00;;;;;;;3.40;2.55;;;31.40;99.90;;;;;;5069755;28;20043;-90
2021/06/03 12:54:30;;;;;;;4.38;2.78;;;32.80;99.90;;;;;;5070379;28;20024;-90
2021/06/03 12:56:59;;;;;;;2.85;2.55;;;32.30;99.90;;;;;;5068009;28;20024;-90